Time;durP1;ratioP1;P1;durP2;ratioP2;P2;SDS_P1;SDS_P2;PMS_P1;PMS_P2;Temp;Humidity;BMP_temperature;BMP_pressure;BME280_temperature;BME280_humidity;BME280_pressure;Samples;Min_cycle;Max_cycle;Signal;HPM_P1;HPM_P2
2023/04/19 00:01:40;;;;;;;;;;;;;;;10.18;70.33;98742.84;5051128;28;19948;-64
2023/04/19 00:04:07;;;;;;;;;;;;;;;10.16;70.86;98740.34;5048908;28;20010;-64
2023/04/19 00:06:33;;;;;;;;;;;;;;;10.14;70.70;98744.81;5064841;28;19917;-64
2023/04/19 18:04:00;;;;;;;;;;;;;;;14.05;34.17;98243.41;4892283;29;20301;-62
2023/04/19 18:06:26;;;;;;;;;;;;;;;13.98;34.76;98243.06;4895205;29;20385;-61
2023/04/19 18:08:51;;;;;;;;;;;;;;;13.89;35.83;98242.00;4897246;29;20440;-61
2023/04/19 18:11:17;;;;;;;;;;;;;;;13.76;36.45;98243.97;4889401;29;19976;-61
2023/04/19 18:13:42;;;;;;;;;;;;;;;13.59;35.79;98247.13;4874459;29;19923;-61
2023/04/19 18:16:08;;;;;;;;;;;;;;;13.42;35.80;98256.38;4875559;29;19927;-62
2023/04/19 18:18:33;;;;;;;;;;;;;;;13.28;37.20;98255.69;4874006;29;20015;-63
2023/04/19 18:21:02;;;;;;;;;;;;;;;13.15;38.46;98254.94;4876183;29;19927;-61
2023/04/19 18:23:27;;;;;;;;;;;;;;;13.03;37.47;98261.97;4876475;29;19920;-64
2023/04/19 18:25:53;;;;;;;;;;;;;;;12.77;38.68;98263.19;4878764;29;19920;-64
2023/04/19 18:28:18;;;;;;;;;;;;;;;12.70;39.29;98259.34;4888157;29;19930;-62
2023/04/19 18:30:43;;;;;;;;;;;;;;;12.55;39.86;98262.16;4876049;29;19959;-62
2023/04/19 18:33:08;;;;;;;;;;;;;;;12.40;39.76;98263.31;4873588;29;19959;-62
2023/04/19 18:35:35;;;;;;;;;;;;;;;12.33;40.94;98272.63;4873596;29;19971;-62
2023/04/19 18:38:00;;;;;;;;;;;;;;;12.23;41.04;98271.63;4876203;29;19927;-62
2023/04/19 18:40:26;;;;;;;;;;;;;;;12.17;41.19;98272.09;4877104;29;19920;-62
2023/04/19 18:42:51;;;;;;;;;;;;;;;12.09;41.73;98273.50;4878122;29;20382;-60
2023/04/19 18:45:16;;;;;;;;;;;;;;;12.03;40.22;98287.09;4874302;29;20350;-62
2023/04/19 18:47:41;;;;;;;;;;;;;;;11.86;40.52;98271.72;4873989;29;19924;-62
2023/04/19 18:50:07;;;;;;;;;;;;;;;11.89;41.09;98282.00;4878406;29;19939;-61
2023/04/19 18:52:33;;;;;;;;;;;;;;;11.77;41.46;98281.06;4877471;29;19920;-61
2023/04/19 18:54:58;;;;;;;;;;;;;;;11.71;40.92;98280.69;4876946;29;19924;-61
2023/04/19 18:57:23;;;;;;;;;;;;;;;11.59;41.36;98277.97;4876011;29;19919;-61
2023/04/19 18:59:49;;;;;;;;;;;;;;;11.53;41.32;98280.22;4876602;29;20024;-61
2023/04/19 19:02:14;;;;;;;;;;;;;;;11.49;42.90;98276.09;4876340;29;19963;-62
2023/04/19 19:04:39;;;;;;;;;;;;;;;11.34;41.59;98278.03;4878468;29;19915;-61
2023/04/19 19:07:05;;;;;;;;;;;;;;;11.20;41.69;98278.16;4876451;29;19930;-60
2023/04/19 19:09:30;;;;;;;;;;;;;;;11.11;42.52;98283.13;4869227;29;20179;-60
2023/04/19 19:11:55;;;;;;;;;;;;;;;11.00;42.33;98282.16;4877261;29;19920;-60
2023/04/19 19:14:20;;;;;;;;;;;;;;;10.97;43.48;98283.22;4877425;29;19951;-60
2023/04/19 19:16:45;;;;;;;;;;;;;;;10.88;43.47;98284.69;4876259;29;19924;-60
2023/04/19 19:19:11;;;;;;;;;;;;;;;10.79;42.62;98287.09;4874347;29;19919;-60
2023/04/19 19:21:36;;;;;;;;;;;;;;;10.68;44.55;98283.44;4877499;29;19930;-60
2023/04/19 19:24:03;;;;;;;;;;;;;;;10.53;43.30;98287.09;4870152;29;19919;-61
2023/04/19 19:26:28;;;;;;;;;;;;;;;10.41;44.32;98283.50;4877658;29;19916;-60
2023/04/19 19:28:54;;;;;;;;;;;;;;;10.35;44.95;98288.31;4874798;29;19924;-61
2023/04/19 19:31:20;;;;;;;;;;;;;;;10.26;45.32;98284.53;4874866;29;19920;-60
2023/04/19 19:33:45;;;;;;;;;;;;;;;10.24;45.20;98286.38;4875833;29;20068;-62
2023/04/19 19:36:11;;;;;;;;;;;;;;;10.16;45.98;98279.00;4877994;29;19920;-60
2023/04/19 19:38:36;;;;;;;;;;;;;;;10.04;46.82;98289.44;4875974;29;19920;-61
2023/04/19 19:41:05;;;;;;;;;;;;;;;9.88;45.39;98289.63;4874487;29;19920;-61
2023/04/19 19:43:30;;;;;;;;;;;;;;;9.91;45.91;98295.50;4876376;29;19916;-62
2023/04/19 19:45:55;;;;;;;;;;;;;;;9.86;46.82;98291.47;4869376;29;19920;-62
2023/04/19 19:48:20;;;;;;;;;;;;;;;13.17;62.99;98292.50;4869020;29;19938;-62
2023/04/19 19:50:45;;;;;;;;;;;;;;;12.05;42.22;98279.94;4862787;29;19920;-61
2023/04/19 19:53:11;;;;;;;;;;;;;;;11.27;43.26;98284.66;4869783;29;19920;-61
2023/04/19 19:55:36;;;;;;;;;;;;;;;10.85;44.24;98286.69;4869898;29;19931;-61
2023/04/19 19:58:03;;;;;;;;;;;;;;;10.73;52.25;98288.34;4873181;29;20424;-61
